sensor_id;sensor_type;location;lat;lon;timestamp;P1;durP1;ratioP1;P2;durP2;ratioP2
239;SDS011;104;53.590;10.004;2023-02-28T00:01:11;20.47;;;8.33;;
239;SDS011;104;53.590;10.004;2023-02-28T00:03:39;23.10;;;9.27;;
239;SDS011;104;53.590;10.004;2023-02-28T00:06:08;21.30;;;7.80;;
239;SDS011;104;53.590;10.004;2023-02-28T00:08:35;21.20;;;8.50;;
239;SDS011;104;53.590;10.004;2023-02-28T00:11:03;21.53;;;7.37;;
239;SDS011;104;53.590;10.004;2023-02-28T00:13:33;20.80;;;8.73;;
239;SDS011;104;53.590;10.004;2023-02-28T00:16:01;19.20;;;8.77;;
239;SDS011;104;53.590;10.004;2023-02-28T00:18:32;21.90;;;7.57;;
239;SDS011;104;53.590;10.004;2023-02-28T00:20:59;18.00;;;7.83;;
239;SDS011;104;53.590;10.004;2023-02-28T00:23:26;15.80;;;8.40;;
239;SDS011;104;53.590;10.004;2023-02-28T00:25:55;19.00;;;7.50;;
239;SDS011;104;53.590;10.004;2023-02-28T00:28:22;17.87;;;7.30;;
239;SDS011;104;53.590;10.004;2023-02-28T00:30:51;26.83;;;9.60;;
239;SDS011;104;53.590;10.004;2023-02-28T00:33:18;23.10;;;8.30;;
239;SDS011;104;53.590;10.004;2023-02-28T00:35:45;23.80;;;7.80;;
239;SDS011;104;53.590;10.004;2023-02-28T00:38:14;20.47;;;8.87;;
239;SDS011;104;53.590;10.004;2023-02-28T00:40:41;30.03;;;9.33;;
239;SDS011;104;53.590;10.004;2023-02-28T00:43:09;25.70;;;8.97;;
239;SDS011;104;53.590;10.004;2023-02-28T00:45:36;24.67;;;9.80;;
239;SDS011;104;53.590;10.004;2023-02-28T00:48:12;22.10;;;8.50;;
239;SDS011;104;53.590;10.004;2023-02-28T00:50:39;25.40;;;8.17;;
239;SDS011;104;53.590;10.004;2023-02-28T00:53:06;22.33;;;9.20;;
239;SDS011;104;53.590;10.004;2023-02-28T00:55:34;25.20;;;9.10;;
239;SDS011;104;53.590;10.004;2023-02-28T00:58:01;24.80;;;9.13;;
239;SDS011;104;53.590;10.004;2023-02-28T01:00:28;21.23;;;9.03;;
239;SDS011;104;53.590;10.004;2023-02-28T01:02:55;21.90;;;8.30;;
239;SDS011;104;53.590;10.004;2023-02-28T01:05:24;21.77;;;8.17;;
239;SDS011;104;53.590;10.004;2023-02-28T01:07:52;29.43;;;10.30;;
239;SDS011;104;53.590;10.004;2023-02-28T01:10:19;24.83;;;8.67;;
239;SDS011;104;53.590;10.004;2023-02-28T01:12:46;24.10;;;8.90;;
239;SDS011;104;53.590;10.004;2023-02-28T01:15:13;18.10;;;8.03;;
239;SDS011;104;53.590;10.004;2023-02-28T01:17:41;25.93;;;9.00;;
239;SDS011;104;53.590;10.004;2023-02-28T01:20:09;25.00;;;9.50;;
239;SDS011;104;53.590;10.004;2023-02-28T01:22:38;20.70;;;8.23;;
239;SDS011;104;53.590;10.004;2023-02-28T01:25:05;20.50;;;8.80;;
239;SDS011;104;53.590;10.004;2023-02-28T01:27:33;21.83;;;9.00;;
239;SDS011;104;53.590;10.004;2023-02-28T01:30:00;18.90;;;8.07;;
239;SDS011;104;53.590;10.004;2023-02-28T01:32:28;24.27;;;9.27;;
239;SDS011;104;53.590;10.004;2023-02-28T01:34:55;16.77;;;7.90;;
239;SDS011;104;53.590;10.004;2023-02-28T01:37:22;19.73;;;8.20;;
239;SDS011;104;53.590;10.004;2023-02-28T01:39:50;23.07;;;9.33;;
239;SDS011;104;53.590;10.004;2023-02-28T01:42:17;20.83;;;8.97;;
239;SDS011;104;53.590;10.004;2023-02-28T01:44:58;20.83;;;8.80;;
239;SDS011;104;53.590;10.004;2023-02-28T01:47:28;25.80;;;9.03;;
239;SDS011;104;53.590;10.004;2023-02-28T01:49:58;19.30;;;8.93;;
239;SDS011;104;53.590;10.004;2023-02-28T01:52:26;21.90;;;8.90;;
239;SDS011;104;53.590;10.004;2023-02-28T01:54:56;19.50;;;8.07;;
239;SDS011;104;53.590;10.004;2023-02-28T01:57:29;19.17;;;8.60;;
239;SDS011;104;53.590;10.004;2023-02-28T02:00:04;23.50;;;9.73;;
239;SDS011;104;53.590;10.004;2023-02-28T02:02:34;23.10;;;9.23;;
239;SDS011;104;53.590;10.004;2023-02-28T02:05:03;17.80;;;7.40;;
239;SDS011;104;53.590;10.004;2023-02-28T02:07:33;20.03;;;8.20;;
239;SDS011;104;53.590;10.004;2023-02-28T02:10:05;23.37;;;9.40;;
239;SDS011;104;53.590;10.004;2023-02-28T02:12:40;20.87;;;9.23;;
239;SDS011;104;53.590;10.004;2023-02-28T02:15:22;19.07;;;8.87;;
239;SDS011;104;53.590;10.004;2023-02-28T02:17:53;19.30;;;8.73;;
239;SDS011;104;53.590;10.004;2023-02-28T02:20:32;22.93;;;8.87;;
239;SDS011;104;53.590;10.004;2023-02-28T02:23:20;22.50;;;8.70;;
239;SDS011;104;53.590;10.004;2023-02-28T02:26:17;25.00;;;9.20;;
239;SDS011;104;53.590;10.004;2023-02-28T02:35:09;18.50;;;7.87;;
239;SDS011;104;53.590;10.004;2023-02-28T02:37:40;19.27;;;8.80;;
239;SDS011;104;53.590;10.004;2023-02-28T02:40:14;21.50;;;9.00;;
239;SDS011;104;53.590;10.004;2023-02-28T02:42:46;26.17;;;10.60;;
239;SDS011;104;53.590;10.004;2023-02-28T02:45:18;29.03;;;9.63;;
239;SDS011;104;53.590;10.004;2023-02-28T02:47:50;24.33;;;9.63;;
239;SDS011;104;53.590;10.004;2023-02-28T02:50:21;23.60;;;9.73;;
239;SDS011;104;53.590;10.004;2023-02-28T02:52:52;19.53;;;8.63;;
239;SDS011;104;53.590;10.004;2023-02-28T02:55:22;20.53;;;8.87;;
239;SDS011;104;53.590;10.004;2023-02-28T02:57:51;21.50;;;9.70;;
239;SDS011;104;53.590;10.004;2023-02-28T03:00:21;23.90;;;9.83;;
239;SDS011;104;53.590;10.004;2023-02-28T03:02:52;25.93;;;10.57;;
239;SDS011;104;53.590;10.004;2023-02-28T03:05:23;24.73;;;9.97;;
239;SDS011;104;53.590;10.004;2023-02-28T03:07:53;24.53;;;10.47;;
239;SDS011;104;53.590;10.004;2023-02-28T03:10:36;24.63;;;10.50;;
239;SDS011;104;53.590;10.004;2023-02-28T03:13:11;26.77;;;10.30;;
239;SDS011;104;53.590;10.004;2023-02-28T03:15:58;26.67;;;10.93;;
239;SDS011;104;53.590;10.004;2023-02-28T03:18:47;22.10;;;10.30;;
239;SDS011;104;53.590;10.004;2023-02-28T03:21:23;24.30;;;10.43;;
239;SDS011;104;53.590;10.004;2023-02-28T03:23:55;30.03;;;10.40;;
239;SDS011;104;53.590;10.004;2023-02-28T03:26:30;32.50;;;10.47;;
239;SDS011;104;53.590;10.004;2023-02-28T03:29:02;22.20;;;9.77;;
239;SDS011;104;53.590;10.004;2023-02-28T03:31:32;25.73;;;10.43;;
239;SDS011;104;53.590;10.004;2023-02-28T03:34:05;27.07;;;10.50;;
239;SDS011;104;53.590;10.004;2023-02-28T03:36:37;23.97;;;10.13;;
239;SDS011;104;53.590;10.004;2023-02-28T03:39:09;26.20;;;10.80;;
239;SDS011;104;53.590;10.004;2023-02-28T03:41:42;24.33;;;10.13;;
239;SDS011;104;53.590;10.004;2023-02-28T03:44:15;28.50;;;10.27;;
239;SDS011;104;53.590;10.004;2023-02-28T03:46:48;26.20;;;10.80;;
239;SDS011;104;53.590;10.004;2023-02-28T03:49:21;32.37;;;11.80;;
239;SDS011;104;53.590;10.004;2023-02-28T03:51:52;26.00;;;10.50;;
239;SDS011;104;53.590;10.004;2023-02-28T03:54:23;25.50;;;10.23;;
239;SDS011;104;53.590;10.004;2023-02-28T03:56:53;19.90;;;8.50;;
239;SDS011;104;53.590;10.004;2023-02-28T03:59:26;27.90;;;10.43;;
239;SDS011;104;53.590;10.004;2023-02-28T04:01:56;27.43;;;11.00;;
239;SDS011;104;53.590;10.004;2023-02-28T04:04:24;24.23;;;9.37;;
239;SDS011;104;53.590;10.004;2023-02-28T04:06:53;33.20;;;10.40;;
239;SDS011;104;53.590;10.004;2023-02-28T04:09:27;28.10;;;11.30;;
239;SDS011;104;53.590;10.004;2023-02-28T04:11:54;30.87;;;11.90;;
239;SDS011;104;53.590;10.004;2023-02-28T04:14:22;29.10;;;10.97;;
239;SDS011;104;53.590;10.004;2023-02-28T04:16:49;29.07;;;11.07;;
239;SDS011;104;53.590;10.004;2023-02-28T04:19:17;30.50;;;11.80;;
239;SDS011;104;53.590;10.004;2023-02-28T04:21:46;26.67;;;10.97;;
239;SDS011;104;53.590;10.004;2023-02-28T04:24:17;27.40;;;10.47;;
239;SDS011;104;53.590;10.004;2023-02-28T04:26:45;27.80;;;11.13;;
239;SDS011;104;53.590;10.004;2023-02-28T04:29:14;31.00;;;12.10;;
239;SDS011;104;53.590;10.004;2023-02-28T04:31:45;27.43;;;10.40;;
239;SDS011;104;53.590;10.004;2023-02-28T04:34:13;25.00;;;11.23;;
239;SDS011;104;53.590;10.004;2023-02-28T04:36:40;24.13;;;10.70;;
239;SDS011;104;53.590;10.004;2023-02-28T04:39:07;24.87;;;10.57;;
239;SDS011;104;53.590;10.004;2023-02-28T04:41:36;26.30;;;11.37;;
239;SDS011;104;53.590;10.004;2023-02-28T04:44:03;33.90;;;11.67;;
239;SDS011;104;53.590;10.004;2023-02-28T04:46:30;27.70;;;8.57;;
239;SDS011;104;53.590;10.004;2023-02-28T04:48:57;28.10;;;10.93;;
239;SDS011;104;53.590;10.004;2023-02-28T04:51:24;23.37;;;9.97;;
239;SDS011;104;53.590;10.004;2023-02-28T04:53:51;27.90;;;10.27;;
239;SDS011;104;53.590;10.004;2023-02-28T04:56:19;30.80;;;11.13;;
239;SDS011;104;53.590;10.004;2023-02-28T04:58:47;29.13;;;10.73;;
239;SDS011;104;53.590;10.004;2023-02-28T05:01:17;31.43;;;11.57;;
239;SDS011;104;53.590;10.004;2023-02-28T05:03:47;28.97;;;11.63;;
239;SDS011;104;53.590;10.004;2023-02-28T05:06:14;26.83;;;10.80;;
239;SDS011;104;53.590;10.004;2023-02-28T05:08:42;23.73;;;9.90;;
239;SDS011;104;53.590;10.004;2023-02-28T05:11:12;26.13;;;10.50;;
239;SDS011;104;53.590;10.004;2023-02-28T05:13:41;28.17;;;11.30;;
239;SDS011;104;53.590;10.004;2023-02-28T05:16:10;24.60;;;11.20;;
239;SDS011;104;53.590;10.004;2023-02-28T05:18:37;30.93;;;12.10;;
239;SDS011;104;53.590;10.004;2023-02-28T05:21:04;24.20;;;10.70;;
239;SDS011;104;53.590;10.004;2023-02-28T05:23:32;31.93;;;11.53;;
239;SDS011;104;53.590;10.004;2023-02-28T05:25:59;22.97;;;9.80;;
239;SDS011;104;53.590;10.004;2023-02-28T05:28:26;33.30;;;10.60;;
239;SDS011;104;53.590;10.004;2023-02-28T05:30:53;29.47;;;12.30;;
239;SDS011;104;53.590;10.004;2023-02-28T05:33:22;25.77;;;9.77;;
239;SDS011;104;53.590;10.004;2023-02-28T05:35:49;25.70;;;10.93;;
239;SDS011;104;53.590;10.004;2023-02-28T05:38:16;28.10;;;11.67;;
239;SDS011;104;53.590;10.004;2023-02-28T05:40:43;25.87;;;11.80;;
239;SDS011;104;53.590;10.004;2023-02-28T05:43:11;23.57;;;9.60;;
239;SDS011;104;53.590;10.004;2023-02-28T05:45:38;35.40;;;12.80;;
239;SDS011;104;53.590;10.004;2023-02-28T05:48:05;29.07;;;11.20;;
239;SDS011;104;53.590;10.004;2023-02-28T05:50:33;32.33;;;11.73;;
239;SDS011;104;53.590;10.004;2023-02-28T05:53:00;26.33;;;10.90;;
239;SDS011;104;53.590;10.004;2023-02-28T05:55:27;36.53;;;12.30;;
239;SDS011;104;53.590;10.004;2023-02-28T05:57:54;32.70;;;11.30;;
239;SDS011;104;53.590;10.004;2023-02-28T06:00:22;31.70;;;10.53;;
239;SDS011;104;53.590;10.004;2023-02-28T06:02:49;31.13;;;12.87;;
239;SDS011;104;53.590;10.004;2023-02-28T06:05:18;27.40;;;11.57;;
239;SDS011;104;53.590;10.004;2023-02-28T06:07:46;25.27;;;11.07;;
239;SDS011;104;53.590;10.004;2023-02-28T06:10:13;34.87;;;12.60;;
239;SDS011;104;53.590;10.004;2023-02-28T06:12:41;24.63;;;10.57;;
239;SDS011;104;53.590;10.004;2023-02-28T06:15:10;24.63;;;9.77;;
239;SDS011;104;53.590;10.004;2023-02-28T06:17:39;30.57;;;10.93;;
239;SDS011;104;53.590;10.004;2023-02-28T06:20:07;24.83;;;11.10;;
239;SDS011;104;53.590;10.004;2023-02-28T06:22:34;31.77;;;12.60;;
239;SDS011;104;53.590;10.004;2023-02-28T06:25:03;29.40;;;11.00;;
239;SDS011;104;53.590;10.004;2023-02-28T06:27:31;32.10;;;12.27;;
239;SDS011;104;53.590;10.004;2023-02-28T06:29:59;28.07;;;11.10;;
239;SDS011;104;53.590;10.004;2023-02-28T06:32:26;24.40;;;10.43;;
239;SDS011;104;53.590;10.004;2023-02-28T06:34:53;29.17;;;11.40;;
239;SDS011;104;53.590;10.004;2023-02-28T06:37:22;29.10;;;11.93;;
239;SDS011;104;53.590;10.004;2023-02-28T06:39:51;31.30;;;12.70;;
239;SDS011;104;53.590;10.004;2023-02-28T06:42:19;25.57;;;10.83;;
239;SDS011;104;53.590;10.004;2023-02-28T06:44:47;30.03;;;12.20;;
239;SDS011;104;53.590;10.004;2023-02-28T06:47:14;27.10;;;10.80;;
239;SDS011;104;53.590;10.004;2023-02-28T06:49:41;33.67;;;11.10;;
239;SDS011;104;53.590;10.004;2023-02-28T06:52:10;24.87;;;9.83;;
239;SDS011;104;53.590;10.004;2023-02-28T06:54:37;25.43;;;10.53;;
239;SDS011;104;53.590;10.004;2023-02-28T06:57:04;26.87;;;11.20;;
239;SDS011;104;53.590;10.004;2023-02-28T06:59:32;27.97;;;11.00;;
239;SDS011;104;53.590;10.004;2023-02-28T07:02:00;28.27;;;11.20;;
239;SDS011;104;53.590;10.004;2023-02-28T07:04:28;29.97;;;11.73;;
239;SDS011;104;53.590;10.004;2023-02-28T07:06:55;28.50;;;10.90;;
239;SDS011;104;53.590;10.004;2023-02-28T07:09:22;25.83;;;11.23;;
239;SDS011;104;53.590;10.004;2023-02-28T07:11:49;22.20;;;10.00;;
239;SDS011;104;53.590;10.004;2023-02-28T07:14:16;23.50;;;10.53;;
239;SDS011;104;53.590;10.004;2023-02-28T07:16:45;22.60;;;9.77;;
239;SDS011;104;53.590;10.004;2023-02-28T07:19:15;23.03;;;9.87;;
239;SDS011;104;53.590;10.004;2023-02-28T07:21:42;23.87;;;10.20;;
239;SDS011;104;53.590;10.004;2023-02-28T07:24:10;29.43;;;11.50;;
239;SDS011;104;53.590;10.004;2023-02-28T07:26:37;25.10;;;10.50;;
239;SDS011;104;53.590;10.004;2023-02-28T07:29:04;29.03;;;11.00;;
239;SDS011;104;53.590;10.004;2023-02-28T07:31:31;28.10;;;10.57;;
239;SDS011;104;53.590;10.004;2023-02-28T07:34:00;23.63;;;11.07;;
239;SDS011;104;53.590;10.004;2023-02-28T07:36:27;27.47;;;10.73;;
239;SDS011;104;53.590;10.004;2023-02-28T07:38:54;29.90;;;10.53;;
239;SDS011;104;53.590;10.004;2023-02-28T07:41:22;25.70;;;9.90;;
239;SDS011;104;53.590;10.004;2023-02-28T07:43:53;27.00;;;11.47;;
239;SDS011;104;53.590;10.004;2023-02-28T07:46:20;27.27;;;11.00;;
239;SDS011;104;53.590;10.004;2023-02-28T07:48:47;26.60;;;10.40;;
239;SDS011;104;53.590;10.004;2023-02-28T07:51:16;30.17;;;11.87;;
239;SDS011;104;53.590;10.004;2023-02-28T07:53:43;36.00;;;12.77;;
239;SDS011;104;53.590;10.004;2023-02-28T07:56:10;26.13;;;11.00;;
239;SDS011;104;53.590;10.004;2023-02-28T07:58:37;22.13;;;10.40;;
239;SDS011;104;53.590;10.004;2023-02-28T08:01:04;31.70;;;13.50;;
239;SDS011;104;53.590;10.004;2023-02-28T08:03:32;25.87;;;10.60;;
239;SDS011;104;53.590;10.004;2023-02-28T08:05:59;23.83;;;10.00;;
239;SDS011;104;53.590;10.004;2023-02-28T08:08:28;29.53;;;11.33;;
239;SDS011;104;53.590;10.004;2023-02-28T08:10:57;26.00;;;11.37;;
239;SDS011;104;53.590;10.004;2023-02-28T08:13:25;26.20;;;11.10;;
239;SDS011;104;53.590;10.004;2023-02-28T08:15:52;28.97;;;11.73;;
239;SDS011;104;53.590;10.004;2023-02-28T08:18:20;26.60;;;12.10;;
239;SDS011;104;53.590;10.004;2023-02-28T08:20:47;25.70;;;11.87;;
239;SDS011;104;53.590;10.004;2023-02-28T08:23:14;30.03;;;12.50;;
239;SDS011;104;53.590;10.004;2023-02-28T08:25:43;22.93;;;10.60;;
239;SDS011;104;53.590;10.004;2023-02-28T08:28:10;26.90;;;11.50;;
239;SDS011;104;53.590;10.004;2023-02-28T08:30:37;27.40;;;12.27;;
239;SDS011;104;53.590;10.004;2023-02-28T08:33:06;26.37;;;11.20;;
239;SDS011;104;53.590;10.004;2023-02-28T08:35:35;25.17;;;11.70;;
239;SDS011;104;53.590;10.004;2023-02-28T08:38:02;26.30;;;11.60;;
239;SDS011;104;53.590;10.004;2023-02-28T08:40:29;25.00;;;11.50;;
239;SDS011;104;53.590;10.004;2023-02-28T08:42:58;26.87;;;11.27;;
239;SDS011;104;53.590;10.004;2023-02-28T08:45:25;21.83;;;10.20;;
239;SDS011;104;53.590;10.004;2023-02-28T08:47:53;29.07;;;11.87;;
239;SDS011;104;53.590;10.004;2023-02-28T08:50:21;21.90;;;10.43;;
239;SDS011;104;53.590;10.004;2023-02-28T08:52:48;28.43;;;12.77;;
239;SDS011;104;53.590;10.004;2023-02-28T08:55:15;34.53;;;11.80;;
239;SDS011;104;53.590;10.004;2023-02-28T08:57:42;35.40;;;13.63;;
239;SDS011;104;53.590;10.004;2023-02-28T09:00:13;33.50;;;11.90;;
239;SDS011;104;53.590;10.004;2023-02-28T09:02:40;27.53;;;11.80;;
239;SDS011;104;53.590;10.004;2023-02-28T09:05:09;29.50;;;12.30;;
239;SDS011;104;53.590;10.004;2023-02-28T09:07:36;23.87;;;10.60;;
239;SDS011;104;53.590;10.004;2023-02-28T09:10:03;23.67;;;11.20;;
239;SDS011;104;53.590;10.004;2023-02-28T09:12:34;31.30;;;12.57;;
239;SDS011;104;53.590;10.004;2023-02-28T09:15:01;27.50;;;12.30;;
239;SDS011;104;53.590;10.004;2023-02-28T09:17:30;35.10;;;12.10;;
239;SDS011;104;53.590;10.004;2023-02-28T09:19:57;20.83;;;9.77;;
239;SDS011;104;53.590;10.004;2023-02-28T09:22:24;28.40;;;11.93;;
239;SDS011;104;53.590;10.004;2023-02-28T09:24:51;38.20;;;11.57;;
239;SDS011;104;53.590;10.004;2023-02-28T09:27:18;34.20;;;11.17;;
239;SDS011;104;53.590;10.004;2023-02-28T09:29:45;25.40;;;11.30;;
239;SDS011;104;53.590;10.004;2023-02-28T09:32:12;27.07;;;11.33;;
239;SDS011;104;53.590;10.004;2023-02-28T09:34:40;30.83;;;13.27;;
239;SDS011;104;53.590;10.004;2023-02-28T09:37:07;24.57;;;12.63;;
239;SDS011;104;53.590;10.004;2023-02-28T09:39:35;26.40;;;11.53;;
239;SDS011;104;53.590;10.004;2023-02-28T09:42:02;23.57;;;11.33;;
239;SDS011;104;53.590;10.004;2023-02-28T09:44:32;27.40;;;11.10;;
239;SDS011;104;53.590;10.004;2023-02-28T09:47:05;24.20;;;11.50;;
239;SDS011;104;53.590;10.004;2023-02-28T09:49:39;23.40;;;10.50;;
239;SDS011;104;53.590;10.004;2023-02-28T09:52:10;26.37;;;12.20;;
239;SDS011;104;53.590;10.004;2023-02-28T09:54:40;33.90;;;12.70;;
239;SDS011;104;53.590;10.004;2023-02-28T09:57:08;21.77;;;11.07;;
239;SDS011;104;53.590;10.004;2023-02-28T09:59:48;23.27;;;10.77;;
239;SDS011;104;53.590;10.004;2023-02-28T10:02:21;31.83;;;12.53;;
239;SDS011;104;53.590;10.004;2023-02-28T10:05:08;25.90;;;11.90;;
239;SDS011;104;53.590;10.004;2023-02-28T10:07:43;26.53;;;12.53;;
239;SDS011;104;53.590;10.004;2023-02-28T10:10:21;27.77;;;11.93;;
239;SDS011;104;53.590;10.004;2023-02-28T10:12:54;23.30;;;10.73;;
239;SDS011;104;53.590;10.004;2023-02-28T10:15:25;25.87;;;11.80;;
239;SDS011;104;53.590;10.004;2023-02-28T10:17:57;27.80;;;12.53;;
239;SDS011;104;53.590;10.004;2023-02-28T10:20:28;35.97;;;13.20;;
239;SDS011;104;53.590;10.004;2023-02-28T10:23:00;34.77;;;12.90;;
239;SDS011;104;53.590;10.004;2023-02-28T10:25:33;30.43;;;13.33;;
239;SDS011;104;53.590;10.004;2023-02-28T10:28:05;26.50;;;12.27;;
239;SDS011;104;53.590;10.004;2023-02-28T10:30:37;33.17;;;13.27;;
239;SDS011;104;53.590;10.004;2023-02-28T10:33:08;29.27;;;13.33;;
239;SDS011;104;53.590;10.004;2023-02-28T10:35:45;27.30;;;12.23;;
239;SDS011;104;53.590;10.004;2023-02-28T10:38:16;35.23;;;13.00;;
239;SDS011;104;53.590;10.004;2023-02-28T10:40:45;30.40;;;13.63;;
239;SDS011;104;53.590;10.004;2023-02-28T10:43:18;27.07;;;12.47;;
239;SDS011;104;53.590;10.004;2023-02-28T10:45:53;28.47;;;12.87;;
239;SDS011;104;53.590;10.004;2023-02-28T10:48:29;32.00;;;13.70;;
239;SDS011;104;53.590;10.004;2023-02-28T10:50:58;29.60;;;13.50;;
239;SDS011;104;53.590;10.004;2023-02-28T10:53:30;25.80;;;12.23;;
239;SDS011;104;53.590;10.004;2023-02-28T10:56:00;34.00;;;14.33;;
239;SDS011;104;53.590;10.004;2023-02-28T10:58:30;28.37;;;13.83;;
239;SDS011;104;53.590;10.004;2023-02-28T11:01:10;37.30;;;14.63;;
239;SDS011;104;53.590;10.004;2023-02-28T11:03:40;30.33;;;12.47;;
239;SDS011;104;53.590;10.004;2023-02-28T11:06:08;32.23;;;13.67;;
239;SDS011;104;53.590;10.004;2023-02-28T11:08:44;31.73;;;14.10;;
239;SDS011;104;53.590;10.004;2023-02-28T11:11:18;33.10;;;14.10;;
239;SDS011;104;53.590;10.004;2023-02-28T11:13:49;40.20;;;16.37;;
239;SDS011;104;53.590;10.004;2023-02-28T11:16:19;28.87;;;13.90;;
239;SDS011;104;53.590;10.004;2023-02-28T11:18:48;34.43;;;13.10;;
239;SDS011;104;53.590;10.004;2023-02-28T11:21:22;26.50;;;13.27;;
239;SDS011;104;53.590;10.004;2023-02-28T11:23:56;33.00;;;14.87;;
239;SDS011;104;53.590;10.004;2023-02-28T11:26:38;29.80;;;13.60;;
239;SDS011;104;53.590;10.004;2023-02-28T11:29:10;30.20;;;12.60;;
239;SDS011;104;53.590;10.004;2023-02-28T11:34:45;30.13;;;13.90;;
239;SDS011;104;53.590;10.004;2023-02-28T11:37:26;27.77;;;12.90;;
239;SDS011;104;53.590;10.004;2023-02-28T11:39:56;27.00;;;13.37;;
239;SDS011;104;53.590;10.004;2023-02-28T11:42:27;35.10;;;13.90;;
239;SDS011;104;53.590;10.004;2023-02-28T11:45:16;31.10;;;13.87;;
239;SDS011;104;53.590;10.004;2023-02-28T11:47:51;32.33;;;14.17;;
239;SDS011;104;53.590;10.004;2023-02-28T11:50:27;29.10;;;13.60;;
239;SDS011;104;53.590;10.004;2023-02-28T11:53:11;27.93;;;12.97;;
239;SDS011;104;53.590;10.004;2023-02-28T11:55:42;29.10;;;13.97;;
239;SDS011;104;53.590;10.004;2023-02-28T11:58:17;31.20;;;13.70;;
239;SDS011;104;53.590;10.004;2023-02-28T12:01:09;30.27;;;13.83;;
239;SDS011;104;53.590;10.004;2023-02-28T12:04:03;30.00;;;13.63;;
239;SDS011;104;53.590;10.004;2023-02-28T12:06:38;31.50;;;14.07;;
239;SDS011;104;53.590;10.004;2023-02-28T12:09:27;33.83;;;15.60;;
239;SDS011;104;53.590;10.004;2023-02-28T12:12:06;27.97;;;13.83;;
239;SDS011;104;53.590;10.004;2023-02-28T12:14:49;28.60;;;13.80;;
239;SDS011;104;53.590;10.004;2023-02-28T12:17:30;31.03;;;14.83;;
239;SDS011;104;53.590;10.004;2023-02-28T12:20:13;29.80;;;14.03;;
239;SDS011;104;53.590;10.004;2023-02-28T12:22:49;29.43;;;14.37;;
239;SDS011;104;53.590;10.004;2023-02-28T12:28:21;27.80;;;13.07;;
239;SDS011;104;53.590;10.004;2023-02-28T12:30:53;34.40;;;15.00;;
239;SDS011;104;53.590;10.004;2023-02-28T12:33:24;28.70;;;13.30;;
239;SDS011;104;53.590;10.004;2023-02-28T12:35:58;30.03;;;14.00;;
239;SDS011;104;53.590;10.004;2023-02-28T12:38:31;26.63;;;12.20;;
239;SDS011;104;53.590;10.004;2023-02-28T12:41:04;30.97;;;13.67;;
239;SDS011;104;53.590;10.004;2023-02-28T12:43:40;31.73;;;14.60;;
239;SDS011;104;53.590;10.004;2023-02-28T12:46:11;28.73;;;12.63;;
239;SDS011;104;53.590;10.004;2023-02-28T12:48:43;30.93;;;13.53;;
239;SDS011;104;53.590;10.004;2023-02-28T12:51:14;29.67;;;13.13;;
239;SDS011;104;53.590;10.004;2023-02-28T12:53:49;33.10;;;14.57;;
239;SDS011;104;53.590;10.004;2023-02-28T12:56:21;29.70;;;13.33;;
239;SDS011;104;53.590;10.004;2023-02-28T12:58:59;28.17;;;13.83;;
239;SDS011;104;53.590;10.004;2023-02-28T13:01:42;27.57;;;13.17;;
239;SDS011;104;53.590;10.004;2023-02-28T13:10:22;24.83;;;12.60;;
239;SDS011;104;53.590;10.004;2023-02-28T13:12:50;32.07;;;12.93;;
239;SDS011;104;53.590;10.004;2023-02-28T13:15:21;34.80;;;14.60;;
239;SDS011;104;53.590;10.004;2023-02-28T13:17:51;25.57;;;12.23;;
239;SDS011;104;53.590;10.004;2023-02-28T13:20:19;25.80;;;13.30;;
239;SDS011;104;53.590;10.004;2023-02-28T13:22:49;31.20;;;14.37;;
239;SDS011;104;53.590;10.004;2023-02-28T13:35:11;29.30;;;13.57;;
239;SDS011;104;53.590;10.004;2023-02-28T13:38:16;31.63;;;13.40;;
239;SDS011;104;53.590;10.004;2023-02-28T13:40:48;36.50;;;14.17;;
239;SDS011;104;53.590;10.004;2023-02-28T13:43:18;31.77;;;13.27;;
239;SDS011;104;53.590;10.004;2023-02-28T13:46:08;28.00;;;13.13;;
239;SDS011;104;53.590;10.004;2023-02-28T13:48:36;32.57;;;12.50;;
239;SDS011;104;53.590;10.004;2023-02-28T13:54:31;28.03;;;12.43;;
239;SDS011;104;53.590;10.004;2023-02-28T13:57:13;28.00;;;12.87;;
239;SDS011;104;53.590;10.004;2023-02-28T13:59:44;32.93;;;12.67;;
239;SDS011;104;53.590;10.004;2023-02-28T14:02:27;29.03;;;12.87;;
239;SDS011;104;53.590;10.004;2023-02-28T14:05:05;24.73;;;11.40;;
239;SDS011;104;53.590;10.004;2023-02-28T14:07:40;28.87;;;12.67;;
239;SDS011;104;53.590;10.004;2023-02-28T14:10:20;28.13;;;13.17;;
239;SDS011;104;53.590;10.004;2023-02-28T14:13:03;32.93;;;14.33;;
239;SDS011;104;53.590;10.004;2023-02-28T14:15:39;33.10;;;13.57;;
239;SDS011;104;53.590;10.004;2023-02-28T14:18:17;27.63;;;13.37;;
239;SDS011;104;53.590;10.004;2023-02-28T14:20:48;29.00;;;12.27;;
239;SDS011;104;53.590;10.004;2023-02-28T14:23:22;34.00;;;13.03;;
239;SDS011;104;53.590;10.004;2023-02-28T14:26:03;33.60;;;13.43;;
239;SDS011;104;53.590;10.004;2023-02-28T14:28:47;30.57;;;13.37;;
239;SDS011;104;53.590;10.004;2023-02-28T14:31:17;30.17;;;12.67;;
239;SDS011;104;53.590;10.004;2023-02-28T14:33:53;30.17;;;13.10;;
239;SDS011;104;53.590;10.004;2023-02-28T14:36:22;28.80;;;13.23;;
239;SDS011;104;53.590;10.004;2023-02-28T14:38:52;25.60;;;12.87;;
239;SDS011;104;53.590;10.004;2023-02-28T14:41:22;32.47;;;14.87;;
239;SDS011;104;53.590;10.004;2023-02-28T14:43:51;28.57;;;13.10;;
239;SDS011;104;53.590;10.004;2023-02-28T14:46:20;34.37;;;13.17;;
239;SDS011;104;53.590;10.004;2023-02-28T14:48:48;30.13;;;13.03;;
239;SDS011;104;53.590;10.004;2023-02-28T14:51:20;34.57;;;14.10;;
239;SDS011;104;53.590;10.004;2023-02-28T14:53:48;35.97;;;14.10;;
239;SDS011;104;53.590;10.004;2023-02-28T14:56:19;29.17;;;13.73;;
239;SDS011;104;53.590;10.004;2023-02-28T14:58:52;27.80;;;12.50;;
239;SDS011;104;53.590;10.004;2023-02-28T15:01:20;28.03;;;13.30;;
239;SDS011;104;53.590;10.004;2023-02-28T15:03:48;31.63;;;13.77;;
239;SDS011;104;53.590;10.004;2023-02-28T15:06:23;33.17;;;13.27;;
239;SDS011;104;53.590;10.004;2023-02-28T15:11:34;26.80;;;11.60;;
239;SDS011;104;53.590;10.004;2023-02-28T15:14:03;37.97;;;15.10;;
239;SDS011;104;53.590;10.004;2023-02-28T15:16:32;34.30;;;14.37;;
239;SDS011;104;53.590;10.004;2023-02-28T15:19:04;34.30;;;14.83;;
239;SDS011;104;53.590;10.004;2023-02-28T15:21:33;31.73;;;14.00;;
239;SDS011;104;53.590;10.004;2023-02-28T15:24:02;35.87;;;14.20;;
239;SDS011;104;53.590;10.004;2023-02-28T15:26:32;30.80;;;13.33;;
239;SDS011;104;53.590;10.004;2023-02-28T15:29:00;34.27;;;13.73;;
239;SDS011;104;53.590;10.004;2023-02-28T15:31:31;31.57;;;13.40;;
239;SDS011;104;53.590;10.004;2023-02-28T15:34:02;45.27;;;13.00;;
239;SDS011;104;53.590;10.004;2023-02-28T15:36:31;31.17;;;13.77;;
239;SDS011;104;53.590;10.004;2023-02-28T15:39:02;38.10;;;15.33;;
239;SDS011;104;53.590;10.004;2023-02-28T15:41:31;30.57;;;14.40;;
239;SDS011;104;53.590;10.004;2023-02-28T15:44:22;36.10;;;15.00;;
239;SDS011;104;53.590;10.004;2023-02-28T15:46:56;33.30;;;14.23;;
239;SDS011;104;53.590;10.004;2023-02-28T15:49:24;46.70;;;14.50;;
239;SDS011;104;53.590;10.004;2023-02-28T15:51:52;35.90;;;15.00;;
239;SDS011;104;53.590;10.004;2023-02-28T15:54:22;36.33;;;15.57;;
239;SDS011;104;53.590;10.004;2023-02-28T15:56:52;31.93;;;14.43;;
239;SDS011;104;53.590;10.004;2023-02-28T15:59:21;35.67;;;15.00;;
239;SDS011;104;53.590;10.004;2023-02-28T16:04:57;28.00;;;12.30;;